Startpagina
METAR-TAF:

METAR-TAF

Vliegvelden :

Jackson, Wyoming, Verenigde Staten

breedte: 43-36N, lengte: 110-44W, hoogte: 1964 m

Actueel weer

Dit bericht is 12 minuten geleden gemaakt, om 10:56 UTC
Wind 6 kt uit het noordoosten
Temperatuur 7°C
Vochtigheid 81%
Druk 1024 hPa
Zicht: 16.1 km
Onbewolkt

METAR: KJAC 191056Z AUTO 04006KT 10SM CLR 07/04 A3023 RMK AO2 SLP179 T00670044

Tijdstip: 05:08 (11:08 UTC)

Verwachting

Dit bericht is 5 uur en het 48 minuten geleden gemaakt, om 05:20 UTC
Verwachting geldig van 19 om 06 UTC tot 20 om 06 UTC
Wind 6 kt uit het noordnoordoosten
Zicht: 10 km
Weinig wolken op 12000 ft
Van 19 om 1800 UTC
Wind 10 kt uit het westzuidwesten met uitschieters tot 18 kt
Zicht: 10 km
Onbewolkt
Van 20 om 0400 UTC
Wind 6 kt uit het noorden
Zicht: 10 km
Onbewolkt

TAF: KJAC 190520Z 1906/2006 02006KT P6SM FEW120 FM191800 24010G18KT P6SM SKC FM200400 01006KT P6SM SKC AMD LTD TO CLD VIS AND WIND

Waarnemingen en weersverwachtingen van meer dan 4000 vliegvelden (METAR en TAF).

De beschikbare stations zijn de gele en rode punten op de kaart.

Ga met uw muis naar het station om de naam te zien.

Klik dan om waarnemingen en weersverwachtingen te zien.

kaart wijzigen: klik op de groene knoppen met een zwart kruis om in te zoomen, op de groene knop met een streepje om uit te zoomen of op de groene pijlen voor aangrenzende kaarten.


METAR-TAF: